createdAt,value
2023-05-15T00:00:20.240Z,12.19
2023-05-15T00:02:41.811Z,12.32
2023-05-15T00:05:04.984Z,12.45
2023-05-15T00:07:26.585Z,12.44
2023-05-15T00:09:48.041Z,12.51
2023-05-15T00:12:09.511Z,12.50
2023-05-15T00:14:31.053Z,12.51
2023-05-15T00:16:52.479Z,12.48
2023-05-15T00:19:14.718Z,12.52
2023-05-15T00:21:36.312Z,12.50
2023-05-15T00:23:58.470Z,12.55
2023-05-15T00:26:20.091Z,12.59
2023-05-15T00:28:41.791Z,12.41
2023-05-15T00:31:03.265Z,12.13
2023-05-15T00:33:24.770Z,12.21
2023-05-15T00:35:46.480Z,12.10
2023-05-15T00:38:07.966Z,12.07
2023-05-15T00:40:30.858Z,12.11
2023-05-15T00:42:52.863Z,12.13
2023-05-15T00:45:15.291Z,12.15
2023-05-15T00:47:40.373Z,12.18
2023-05-15T00:50:03.019Z,12.14
2023-05-15T00:52:24.596Z,12.23
2023-05-15T00:54:46.042Z,12.20
2023-05-15T00:57:08.919Z,12.10
2023-05-15T00:59:31.697Z,11.95
2023-05-15T01:01:53.312Z,11.95
2023-05-15T01:04:14.825Z,11.88
2023-05-15T01:06:36.510Z,11.91
2023-05-15T01:09:02.217Z,11.92
2023-05-15T01:11:27.694Z,11.88
2023-05-15T01:13:49.127Z,11.82
2023-05-15T01:16:10.904Z,11.53
2023-05-15T01:18:33.425Z,11.66
2023-05-15T01:21:13.707Z,11.61
2023-05-15T01:23:57.072Z,11.38
2023-05-15T01:26:46.378Z,11.46
2023-05-15T01:29:20.633Z,11.51
2023-05-15T01:31:45.496Z,11.60
2023-05-15T01:34:09.450Z,11.59
2023-05-15T01:36:38.543Z,11.51
2023-05-15T01:39:03.427Z,11.33
2023-05-15T01:41:45.484Z,11.40
2023-05-15T01:44:26.162Z,11.47
2023-05-15T01:46:51.273Z,11.42
2023-05-15T01:49:15.998Z,11.44
2023-05-15T01:51:39.246Z,11.48
2023-05-15T01:54:01.364Z,11.47
2023-05-15T01:56:24.333Z,11.42
2023-05-15T01:58:48.196Z,11.38
2023-05-15T02:01:10.873Z,11.41
2023-05-15T02:03:34.605Z,11.42
2023-05-15T02:05:56.697Z,11.31
2023-05-15T02:08:18.565Z,11.07
2023-05-15T02:10:40.690Z,11.13
2023-05-15T02:13:02.553Z,11.05
2023-05-15T02:15:25.018Z,10.92
2023-05-15T02:17:46.793Z,10.95
2023-05-15T02:20:09.063Z,10.88
2023-05-15T02:22:30.626Z,10.69
2023-05-15T02:24:52.220Z,10.72
2023-05-15T02:27:20.594Z,10.78
2023-05-15T02:30:03.599Z,10.82
2023-05-15T02:32:34.966Z,10.77
2023-05-15T02:35:14.339Z,10.71
2023-05-15T02:37:39.513Z,10.82
2023-05-15T02:40:01.893Z,10.80
2023-05-15T02:42:23.937Z,10.73
2023-05-15T02:44:46.650Z,10.53
2023-05-15T02:47:08.482Z,10.41
2023-05-15T02:49:30.028Z,10.44
2023-05-15T02:51:51.526Z,10.36
2023-05-15T02:54:13.616Z,10.10
2023-05-15T02:56:35.421Z,10.21
2023-05-15T02:58:56.951Z,10.20
2023-05-15T03:01:18.452Z,10.27
2023-05-15T03:03:39.923Z,10.27
2023-05-15T03:06:01.558Z,10.30
2023-05-15T03:08:23.020Z,10.26
2023-05-15T03:10:44.700Z,10.17
2023-05-15T03:13:06.190Z,9.85
2023-05-15T03:15:27.857Z,9.95
2023-05-15T03:17:49.460Z,9.98
2023-05-15T03:20:11.220Z,10.06
2023-05-15T03:22:32.640Z,10.03
2023-05-15T03:24:54.066Z,9.90
2023-05-15T03:27:15.676Z,9.74
2023-05-15T03:29:37.106Z,9.56
2023-05-15T03:31:58.613Z,9.58
2023-05-15T03:34:20.124Z,9.67
2023-05-15T03:36:41.549Z,9.30
2023-05-15T03:39:03.064Z,9.49
2023-05-15T03:41:26.052Z,9.54
2023-05-15T03:43:47.486Z,9.58
2023-05-15T03:46:08.925Z,9.50
2023-05-15T03:48:30.378Z,9.55
2023-05-15T03:50:52.330Z,9.49
2023-05-15T03:53:13.840Z,9.56
2023-05-15T03:55:35.716Z,9.48
2023-05-15T03:57:57.840Z,9.43
2023-05-15T04:00:19.519Z,9.47
2023-05-15T04:02:41.476Z,9.51
2023-05-15T04:05:06.832Z,9.53
2023-05-15T04:07:28.329Z,9.61
2023-05-15T04:09:49.768Z,9.64
2023-05-15T04:12:11.479Z,9.66
2023-05-15T04:14:32.928Z,9.68
2023-05-15T04:16:54.353Z,9.66
2023-05-15T04:19:15.837Z,9.79
2023-05-15T04:21:37.299Z,9.86
2023-05-15T04:23:58.729Z,9.83
2023-05-15T04:26:20.196Z,9.87
2023-05-15T04:28:49.321Z,9.95
2023-05-15T04:31:17.815Z,10.04
2023-05-15T04:33:39.294Z,9.97
2023-05-15T04:36:00.805Z,9.99
2023-05-15T04:38:22.357Z,9.89
2023-05-15T04:40:44.206Z,9.91
2023-05-15T04:43:06.019Z,9.97
2023-05-15T04:45:27.475Z,9.99
2023-05-15T04:47:48.982Z,10.01
2023-05-15T04:50:10.670Z,10.11
2023-05-15T04:52:32.581Z,10.14
2023-05-15T04:54:55.829Z,10.15
2023-05-15T04:57:17.590Z,10.27
2023-05-15T04:59:39.081Z,10.37
2023-05-15T05:02:01.904Z,10.48
2023-05-15T05:04:23.500Z,10.55
2023-05-15T05:06:45.912Z,10.65
2023-05-15T05:09:07.340Z,10.72
2023-05-15T05:11:29.069Z,10.82
2023-05-15T05:13:51.826Z,10.85
2023-05-15T05:16:13.393Z,10.92
2023-05-15T05:18:34.976Z,11.00
2023-05-15T05:21:03.498Z,11.06
2023-05-15T05:23:24.901Z,11.16
2023-05-15T05:25:46.324Z,11.26
2023-05-15T05:28:07.838Z,11.34
2023-05-15T05:30:29.285Z,11.48
2023-05-15T05:32:50.805Z,11.56
2023-05-15T05:35:12.274Z,11.69
2023-05-15T05:37:33.770Z,11.83
2023-05-15T05:39:55.230Z,11.98
2023-05-15T05:42:16.630Z,12.19
2023-05-15T05:44:38.060Z,12.34
2023-05-15T05:46:59.475Z,12.55
2023-05-15T05:49:21.005Z,12.77
2023-05-15T05:51:42.481Z,13.02
2023-05-15T05:54:04.072Z,13.31
2023-05-15T05:56:26.620Z,13.58
2023-05-15T05:58:48.244Z,13.85
2023-05-15T06:01:10.082Z,14.09
2023-05-15T06:03:31.874Z,14.11
2023-05-15T06:05:53.816Z,14.45
2023-05-15T06:08:15.460Z,14.46
2023-05-15T06:10:36.917Z,14.64
2023-05-15T06:12:58.378Z,14.75
2023-05-15T06:15:19.855Z,14.86
2023-05-15T06:17:41.582Z,14.98
2023-05-15T06:20:06.986Z,15.16
2023-05-15T06:22:28.531Z,15.18
2023-05-15T06:24:49.983Z,15.30
2023-05-15T06:27:11.478Z,15.36
2023-05-15T06:29:32.916Z,15.52
2023-05-15T06:31:54.376Z,15.58
2023-05-15T06:34:15.807Z,15.70
2023-05-15T06:36:37.443Z,15.77
2023-05-15T06:38:58.852Z,15.82
2023-05-15T06:41:20.278Z,15.85
2023-05-15T06:43:41.705Z,15.87
2023-05-15T06:46:03.384Z,15.92
2023-05-15T06:48:24.894Z,15.91
2023-05-15T06:50:46.338Z,15.89
2023-05-15T06:53:07.792Z,15.82
2023-05-15T06:55:29.370Z,16.01
2023-05-15T06:57:50.877Z,16.02
2023-05-15T07:00:12.908Z,16.16
2023-05-15T07:02:34.380Z,16.21
2023-05-15T07:04:56.216Z,16.31
2023-05-15T07:07:18.313Z,16.35
2023-05-15T07:09:39.781Z,16.33
2023-05-15T07:12:01.207Z,16.34
2023-05-15T07:14:22.658Z,16.45
2023-05-15T07:16:45.138Z,16.59
2023-05-15T07:19:09.183Z,16.90
2023-05-15T07:21:30.854Z,17.07
2023-05-15T07:23:52.292Z,17.12
2023-05-15T07:26:20.094Z,17.07
2023-05-15T07:28:49.296Z,17.37
2023-05-15T07:31:10.724Z,17.37
2023-05-15T07:33:32.161Z,17.37
2023-05-15T07:35:53.562Z,17.46
2023-05-15T07:38:15.044Z,17.45
2023-05-15T07:40:36.542Z,17.47
2023-05-15T07:42:58.505Z,17.36
2023-05-15T07:45:19.998Z,17.29
2023-05-15T07:47:47.093Z,17.43
2023-05-15T07:50:09.082Z,17.63
2023-05-15T07:52:30.624Z,17.66
2023-05-15T07:54:52.073Z,17.72
2023-05-15T07:57:14.195Z,17.73
2023-05-15T07:59:36.572Z,17.69
2023-05-15T08:01:58.094Z,17.75
2023-05-15T08:04:19.635Z,17.83
2023-05-15T08:06:42.778Z,17.86
2023-05-15T08:09:05.987Z,17.90
2023-05-15T08:11:27.445Z,17.95
2023-05-15T08:13:48.981Z,18.18
2023-05-15T08:16:10.645Z,18.27
2023-05-15T08:18:32.311Z,18.27
2023-05-15T08:20:53.766Z,18.26
2023-05-15T08:23:15.261Z,18.29
2023-05-15T08:25:36.706Z,18.06
2023-05-15T08:27:58.200Z,18.23
2023-05-15T08:30:19.648Z,18.32
2023-05-15T08:32:43.952Z,18.29
2023-05-15T08:35:05.897Z,18.36
2023-05-15T08:37:27.340Z,18.50
2023-05-15T08:39:48.802Z,18.60
2023-05-15T08:42:34.105Z,18.72
2023-05-15T08:44:55.949Z,18.80
2023-05-15T08:47:19.396Z,18.99
2023-05-15T08:50:06.056Z,19.08
2023-05-15T08:52:28.684Z,19.18
2023-05-15T08:54:50.777Z,19.21
2023-05-15T08:57:12.210Z,19.33
2023-05-15T08:59:33.671Z,19.52
2023-05-15T09:01:56.068Z,19.77
2023-05-15T09:04:17.531Z,19.93
2023-05-15T09:06:40.814Z,20.12
2023-05-15T09:09:05.188Z,20.14
2023-05-15T09:11:27.008Z,20.24
2023-05-15T09:13:48.442Z,20.59
2023-05-15T09:16:09.952Z,20.57
2023-05-15T09:18:32.589Z,21.09
2023-05-15T09:20:56.066Z,21.34
2023-05-15T09:23:26.947Z,21.72
2023-05-15T09:25:53.144Z,21.93
2023-05-15T09:28:32.418Z,21.87
2023-05-15T09:31:04.800Z,21.65
2023-05-15T09:33:34.501Z,21.69
2023-05-15T09:35:56.080Z,21.50
2023-05-15T09:38:18.967Z,21.21
2023-05-15T09:40:41.061Z,20.75
2023-05-15T09:43:02.589Z,20.45
2023-05-15T09:45:29.852Z,20.03
2023-05-15T09:47:52.078Z,19.70
2023-05-15T09:50:21.477Z,19.14
2023-05-15T09:52:42.948Z,19.01
2023-05-15T09:55:06.216Z,19.00
2023-05-15T09:57:27.635Z,18.93
2023-05-15T09:59:49.598Z,19.10
2023-05-15T10:02:35.299Z,19.17
2023-05-15T10:04:58.158Z,19.31
2023-05-15T10:07:36.478Z,19.61
2023-05-15T10:09:58.496Z,19.92
2023-05-15T10:12:20.327Z,20.16
2023-05-15T10:14:41.823Z,20.50
2023-05-15T10:17:03.342Z,20.80
2023-05-15T10:19:27.788Z,21.30
2023-05-15T10:21:52.774Z,21.61
2023-05-15T10:24:16.593Z,21.87
2023-05-15T10:26:42.733Z,22.11
2023-05-15T10:29:07.213Z,22.33
2023-05-15T10:31:30.120Z,22.56
2023-05-15T10:33:55.273Z,22.83
2023-05-15T10:36:18.057Z,22.86
2023-05-15T10:38:40.270Z,23.26
2023-05-15T10:41:15.908Z,23.44
2023-05-15T10:43:39.746Z,23.91
2023-05-15T10:46:02.022Z,23.96
2023-05-15T10:48:24.955Z,24.01
2023-05-15T10:50:48.748Z,23.91
2023-05-15T10:53:10.880Z,24.35
2023-05-15T10:55:32.608Z,24.21
2023-05-15T10:57:54.978Z,23.44
2023-05-15T11:00:22.433Z,23.24
2023-05-15T11:02:44.804Z,23.05
2023-05-15T11:05:07.044Z,22.95
2023-05-15T11:07:28.586Z,22.99
2023-05-15T11:09:50.556Z,22.90
2023-05-15T11:12:12.166Z,22.78
2023-05-15T11:14:40.564Z,22.90
2023-05-15T11:17:12.306Z,23.25
2023-05-15T11:20:03.289Z,23.45
2023-05-15T11:22:30.830Z,24.26
2023-05-15T11:24:59.401Z,24.56
2023-05-15T11:27:26.313Z,24.94
2023-05-15T11:30:29.600Z,25.49
2023-05-15T11:33:04.274Z,25.25
2023-05-15T11:35:43.256Z,25.22
2023-05-15T11:38:10.956Z,25.44
2023-05-15T11:40:43.877Z,25.79
2023-05-15T11:43:18.366Z,26.17
2023-05-15T11:45:40.540Z,26.02
2023-05-15T11:48:03.641Z,25.93
2023-05-15T11:50:25.638Z,26.18
2023-05-15T11:52:49.607Z,26.05
2023-05-15T11:55:11.279Z,25.51
2023-05-15T11:57:32.901Z,25.31
2023-05-15T11:59:55.666Z,24.67
2023-05-15T12:02:17.121Z,24.54
2023-05-15T12:04:38.560Z,24.50
2023-05-15T12:07:03.215Z,24.28
2023-05-15T12:09:27.624Z,24.76
2023-05-15T12:11:53.420Z,25.82
2023-05-15T12:14:14.872Z,26.77
2023-05-15T12:16:36.374Z,27.59
2023-05-15T12:18:58.087Z,28.51
2023-05-15T12:21:19.674Z,29.33
2023-05-15T12:23:41.168Z,29.96
2023-05-15T12:26:03.708Z,30.39
2023-05-15T12:28:26.846Z,30.94
2023-05-15T12:30:49.396Z,30.77
2023-05-15T12:33:11.228Z,30.67
2023-05-15T12:35:34.721Z,29.14
2023-05-15T12:37:56.280Z,29.29
2023-05-15T12:40:21.512Z,28.62
2023-05-15T12:42:44.723Z,27.85
2023-05-15T12:45:16.344Z,27.53
2023-05-15T12:47:38.252Z,27.08
2023-05-15T12:49:59.906Z,27.40
2023-05-15T12:52:21.331Z,27.63
2023-05-15T12:54:44.678Z,27.39
2023-05-15T12:57:06.215Z,26.24
2023-05-15T12:59:28.657Z,26.15
2023-05-15T13:01:50.491Z,26.21
2023-05-15T13:04:12.021Z,25.43
2023-05-15T13:06:45.083Z,25.35
2023-05-15T13:09:08.397Z,25.37
2023-05-15T13:11:31.593Z,25.48
2023-05-15T13:13:53.039Z,23.93
2023-05-15T13:16:22.453Z,24.62
2023-05-15T13:18:44.329Z,25.48
2023-05-15T13:21:05.806Z,24.94
2023-05-15T13:23:27.267Z,24.81
2023-05-15T13:25:48.751Z,24.80
2023-05-15T13:28:11.417Z,24.33
2023-05-15T13:30:39.065Z,24.52
2023-05-15T13:33:01.549Z,24.55
2023-05-15T13:35:23.356Z,24.37
2023-05-15T13:37:44.828Z,24.51
2023-05-15T13:40:10.083Z,24.51
2023-05-15T13:42:31.502Z,24.70
2023-05-15T13:44:53.209Z,24.13
2023-05-15T13:47:15.444Z,24.37
2023-05-15T13:49:37.086Z,24.66
2023-05-15T13:51:58.586Z,24.35
2023-05-15T13:54:20.042Z,24.40
2023-05-15T13:56:41.500Z,24.63
2023-05-15T13:59:02.956Z,25.21
2023-05-15T14:01:24.466Z,25.34
2023-05-15T14:03:46.019Z,25.33
2023-05-15T14:06:07.558Z,25.53
2023-05-15T14:08:29.054Z,26.18
2023-05-15T14:10:50.490Z,26.63
2023-05-15T14:13:11.923Z,26.62
2023-05-15T14:15:33.367Z,26.46
2023-05-15T14:17:54.832Z,26.28
2023-05-15T14:20:16.342Z,25.95
2023-05-15T14:22:38.533Z,25.71
2023-05-15T14:24:59.976Z,25.58
2023-05-15T14:27:21.436Z,25.37
2023-05-15T14:29:44.819Z,25.20
2023-05-15T14:32:06.863Z,25.24
2023-05-15T14:34:30.356Z,25.43
2023-05-15T14:36:51.889Z,25.38
2023-05-15T14:39:16.996Z,25.50
2023-05-15T14:41:38.491Z,25.21
2023-05-15T14:44:00.002Z,25.09
2023-05-15T14:46:21.571Z,25.44
2023-05-15T14:48:43.114Z,25.08
2023-05-15T14:51:05.038Z,25.44
2023-05-15T14:53:27.430Z,25.20
2023-05-15T14:55:48.890Z,25.18
2023-05-15T14:58:11.416Z,25.96
2023-05-15T15:00:32.952Z,27.17
2023-05-15T15:02:54.444Z,29.34
2023-05-15T15:05:16.042Z,30.15
2023-05-15T15:08:09.356Z,31.74
2023-05-15T15:10:32.629Z,31.89
2023-05-15T15:12:54.349Z,32.37
2023-05-15T15:15:15.858Z,32.34
2023-05-15T15:17:37.269Z,32.54
2023-05-15T15:19:58.734Z,32.72
2023-05-15T15:22:20.160Z,33.19
2023-05-15T15:24:41.603Z,32.69
2023-05-15T15:27:03.089Z,33.25
2023-05-15T15:29:24.604Z,33.94
2023-05-15T15:31:46.034Z,34.31
2023-05-15T15:34:09.083Z,33.40
2023-05-15T15:36:31.369Z,33.98
2023-05-15T15:38:52.992Z,32.29
2023-05-15T15:41:14.440Z,32.06
2023-05-15T15:43:36.087Z,31.62
2023-05-15T15:45:57.641Z,30.67
2023-05-15T15:48:19.145Z,28.53
2023-05-15T15:50:40.666Z,27.40
2023-05-15T15:53:02.078Z,27.38
2023-05-15T15:55:23.517Z,26.54
2023-05-15T15:57:45.002Z,27.86
2023-05-15T16:00:08.261Z,28.39
2023-05-15T16:02:29.817Z,28.49
2023-05-15T16:04:51.244Z,28.95
2023-05-15T16:07:12.699Z,29.45
2023-05-15T16:09:34.408Z,29.92
2023-05-15T16:11:56.048Z,29.60
2023-05-15T16:14:18.874Z,29.98
2023-05-15T16:16:40.627Z,27.93
2023-05-15T16:19:02.124Z,28.48
2023-05-15T16:21:23.608Z,28.98
2023-05-15T16:23:45.474Z,29.26
2023-05-15T16:26:08.229Z,29.58
2023-05-15T16:28:29.662Z,29.43
2023-05-15T16:30:51.576Z,29.02
2023-05-15T16:33:13.637Z,28.91
2023-05-15T16:35:36.753Z,27.07
2023-05-15T16:37:58.170Z,25.26
2023-05-15T16:40:19.629Z,23.78
2023-05-15T16:42:41.497Z,22.17
2023-05-15T16:45:03.515Z,21.16
2023-05-15T16:47:24.983Z,20.64
2023-05-15T16:49:48.344Z,19.84
2023-05-15T16:52:11.427Z,19.62
2023-05-15T16:54:32.991Z,19.09
2023-05-15T16:56:55.903Z,18.76
2023-05-15T16:59:17.350Z,18.68
2023-05-15T17:01:38.832Z,18.52
2023-05-15T17:04:00.359Z,18.32
2023-05-15T17:06:21.791Z,18.42
2023-05-15T17:08:45.163Z,18.53
2023-05-15T17:11:06.562Z,18.69
2023-05-15T17:13:28.033Z,18.86
2023-05-15T17:15:49.853Z,19.08
2023-05-15T17:18:11.355Z,18.89
2023-05-15T17:20:32.773Z,18.77
2023-05-15T17:22:54.233Z,18.55
2023-05-15T17:25:15.767Z,18.49
2023-05-15T17:27:41.113Z,18.28
2023-05-15T17:30:02.593Z,18.19
2023-05-15T17:32:24.124Z,18.36
2023-05-15T17:34:46.351Z,18.32
2023-05-15T17:37:08.841Z,18.49
2023-05-15T17:39:30.247Z,18.95
2023-05-15T17:41:51.693Z,19.35
2023-05-15T17:44:13.304Z,19.40
2023-05-15T17:46:34.932Z,19.19
2023-05-15T17:48:56.416Z,19.06
2023-05-15T17:51:17.865Z,19.10
2023-05-15T17:53:39.409Z,19.32
2023-05-15T17:56:01.250Z,19.14
2023-05-15T17:58:22.799Z,19.16
2023-05-15T18:00:44.403Z,19.14
2023-05-15T18:03:05.902Z,18.94
2023-05-15T18:05:27.797Z,18.89
2023-05-15T18:07:49.584Z,18.73
2023-05-15T18:10:11.067Z,18.66
2023-05-15T18:12:32.551Z,18.38
2023-05-15T18:14:54.378Z,18.25
2023-05-15T18:17:16.249Z,18.16
2023-05-15T18:19:39.636Z,17.92
2023-05-15T18:22:03.289Z,17.96
2023-05-15T18:24:24.806Z,17.97
2023-05-15T18:26:46.892Z,17.72
2023-05-15T18:29:08.840Z,17.55
2023-05-15T18:31:30.319Z,17.36
2023-05-15T18:33:51.854Z,17.16
2023-05-15T18:36:13.368Z,17.12
2023-05-15T18:38:34.857Z,16.91
2023-05-15T18:40:56.313Z,16.79
2023-05-15T18:43:17.744Z,16.64
2023-05-15T18:45:39.453Z,16.57
2023-05-15T18:48:00.909Z,16.38
2023-05-15T18:50:24.901Z,16.24
2023-05-15T18:52:46.732Z,16.25
2023-05-15T18:55:09.789Z,16.39
2023-05-15T18:57:31.225Z,16.51
2023-05-15T18:59:52.929Z,16.64
2023-05-15T19:02:14.695Z,16.86
2023-05-15T19:04:36.360Z,16.96
2023-05-15T19:06:57.926Z,16.94
2023-05-15T19:09:19.799Z,16.75
2023-05-15T19:11:41.224Z,16.73
2023-05-15T19:14:02.765Z,16.66
2023-05-15T19:16:28.451Z,16.63
2023-05-15T19:18:50.149Z,16.67
2023-05-15T19:21:11.758Z,16.68
2023-05-15T19:23:33.191Z,16.64
2023-05-15T19:25:54.607Z,16.68
2023-05-15T19:28:16.224Z,16.76
2023-05-15T19:30:37.624Z,16.73
2023-05-15T19:32:59.140Z,16.75
2023-05-15T19:35:20.633Z,16.67
2023-05-15T19:37:42.387Z,16.52
2023-05-15T19:40:04.642Z,16.49
2023-05-15T19:42:26.489Z,16.13
2023-05-15T19:44:47.930Z,16.16
2023-05-15T19:47:09.769Z,16.16
2023-05-15T19:49:31.273Z,16.08
2023-05-15T19:51:52.777Z,16.06
2023-05-15T19:54:15.992Z,16.07
2023-05-15T19:56:37.478Z,15.90
2023-05-15T19:59:00.433Z,15.86
2023-05-15T20:01:22.018Z,15.66
2023-05-15T20:03:43.687Z,15.70
2023-05-15T20:06:05.757Z,15.72
2023-05-15T20:08:27.532Z,15.74
2023-05-15T20:10:52.596Z,15.68
2023-05-15T20:13:14.018Z,15.69
2023-05-15T20:15:35.955Z,15.69
2023-05-15T20:17:57.848Z,15.53
2023-05-15T20:20:19.388Z,15.59
2023-05-15T20:22:43.439Z,15.46
2023-05-15T20:25:06.325Z,15.50
2023-05-15T20:27:27.716Z,15.49
2023-05-15T20:29:49.206Z,15.46
2023-05-15T20:32:11.045Z,15.35
2023-05-15T20:34:33.389Z,15.30
2023-05-15T20:36:56.225Z,15.13
2023-05-15T20:39:17.914Z,15.06
2023-05-15T20:41:39.335Z,15.15
2023-05-15T20:44:01.045Z,15.20
2023-05-15T20:46:22.531Z,15.29
2023-05-15T20:48:44.148Z,15.24
2023-05-15T20:51:05.573Z,15.18
2023-05-15T20:53:28.811Z,15.20
2023-05-15T20:55:50.350Z,15.26
2023-05-15T20:58:11.780Z,15.18
2023-05-15T21:00:33.305Z,15.12
2023-05-15T21:02:54.814Z,15.22
2023-05-15T21:05:16.374Z,15.20
2023-05-15T21:07:38.074Z,15.23
2023-05-15T21:09:59.572Z,14.97
2023-05-15T21:12:20.986Z,15.04
2023-05-15T21:14:42.396Z,14.82
2023-05-15T21:17:03.961Z,14.81
2023-05-15T21:19:25.490Z,14.81
2023-05-15T21:21:46.926Z,14.80
2023-05-15T21:24:08.512Z,14.83
2023-05-15T21:26:30.446Z,14.81
2023-05-15T21:28:51.882Z,14.80
2023-05-15T21:31:13.472Z,14.81
2023-05-15T21:33:35.700Z,14.76
2023-05-15T21:35:57.125Z,14.72
2023-05-15T21:38:18.549Z,14.68
2023-05-15T21:40:39.997Z,14.63
2023-05-15T21:43:01.467Z,14.64
2023-05-15T21:45:23.236Z,14.32
2023-05-15T21:47:44.790Z,14.38
2023-05-15T21:50:07.111Z,14.21
2023-05-15T21:52:28.548Z,14.29
2023-05-15T21:54:50.128Z,14.07
2023-05-15T21:57:11.594Z,14.18
2023-05-15T21:59:33.028Z,14.10
2023-05-15T22:01:54.495Z,14.11
2023-05-15T22:04:16.102Z,13.90
2023-05-15T22:06:37.509Z,13.97
2023-05-15T22:08:58.938Z,13.86
2023-05-15T22:11:20.705Z,13.71
2023-05-15T22:13:42.219Z,13.72
2023-05-15T22:16:03.738Z,13.77
2023-05-15T22:18:26.188Z,13.81
2023-05-15T22:20:48.732Z,13.63
2023-05-15T22:23:10.497Z,13.42
2023-05-15T22:25:31.908Z,13.48
2023-05-15T22:27:53.387Z,13.46
2023-05-15T22:30:14.986Z,13.23
2023-05-15T22:32:36.569Z,13.30
2023-05-15T22:34:58.698Z,13.10
2023-05-15T22:37:20.371Z,13.22
2023-05-15T22:39:42.443Z,12.99
2023-05-15T22:42:04.207Z,12.98
2023-05-15T22:44:25.687Z,12.93
2023-05-15T22:46:47.135Z,12.97
2023-05-15T22:49:09.948Z,13.07
2023-05-15T22:51:31.650Z,12.97
2023-05-15T22:53:53.090Z,12.93
2023-05-15T22:56:14.851Z,12.97
2023-05-15T22:58:36.342Z,13.03
2023-05-15T23:00:57.844Z,12.76
2023-05-15T23:03:19.432Z,12.73
2023-05-15T23:05:41.221Z,12.96
2023-05-15T23:08:02.677Z,13.06
2023-05-15T23:10:24.383Z,12.93
2023-05-15T23:12:46.306Z,13.08
2023-05-15T23:15:10.367Z,13.04
2023-05-15T23:17:31.916Z,13.03
2023-05-15T23:19:53.534Z,13.13
2023-05-15T23:22:15.013Z,13.25
2023-05-15T23:24:36.446Z,13.29
2023-05-15T23:26:57.889Z,13.22
2023-05-15T23:29:19.375Z,13.29
2023-05-15T23:31:42.902Z,13.40
2023-05-15T23:34:04.494Z,13.48
2023-05-15T23:36:25.966Z,13.51
2023-05-15T23:38:47.370Z,13.69
2023-05-15T23:41:08.878Z,13.72
2023-05-15T23:43:30.437Z,13.80
2023-05-15T23:45:51.861Z,13.89
2023-05-15T23:48:13.320Z,13.92
2023-05-15T23:50:35.041Z,13.94
2023-05-15T23:52:56.451Z,13.97
2023-05-15T23:55:17.916Z,13.96
2023-05-15T23:57:39.814Z,13.87
